Latest Coastal Weather Observations for Rhyll

IDV60701

Issued at 9:32 pm EST Wednesday 24 May 2017 (issued every 10 minutes, with the page automatically refreshed every 10 minutes)

About coastal observations | Map of coastal stations | Coastal observations for VIC | Marine services | Other Formats
Station Details ID: 086373 Name: RHYLL Lat: -38.46 Lon: 145.31 Height: 13.4 m
Data from the previous 72 hours. | See also: Recent months at Rhyll
Date/Time
EST
Temp
°C
Wind Pressure Rain since
9am
mm
Weather Cloud Vis
km
Sea
Height
m
Swell
Dir  Spd
kts
Gust
kts
hPa Trend Height
m
Period
s
Dir
24/09:30pm 13.4 W 5 10 1019.3 - 0.0 - - - - - - -
24/09:00pm 13.4 W 6 11 1019.0 - 0.0 - - - - - - -
24/08:30pm 13.7 W 5 9 1018.9 - 0.0 - - - - - - -
24/08:00pm 14.0 W 5 10 1018.8 - 0.0 - - - - - - -
24/07:30pm 14.0 W 5 10 1018.5 - 0.0 - - - - - - -
24/07:00pm 14.0 WNW 4 9 1018.4 - 0.0 - - - - - - -
24/06:30pm 13.7 WNW 4 7 1018.2 - 0.0 - - - - - - -
24/06:00pm 13.9 WNW 2 5 1018.1 - 0.0 - - - - - - -
24/05:30pm 14.0 WNW 4 7 1017.7 - 0.0 - - - - - - -
24/05:00pm 14.0 W 4 8 1017.3 - 0.0 - - - - - - -
24/04:30pm 14.5 WSW 6 11 1017.1 - 0.0 - - - - - - -
24/04:00pm 15.2 W 6 11 1016.7 - 0.0 - - - - - - -
24/03:30pm 15.0 WSW 9 16 1016.4 - 0.0 - - - - - - -
24/03:00pm 15.2 WSW 10 19 1016.0 - 0.0 - - - - - - -
24/02:30pm 15.8 W 9 15 1015.7 - 0.0 - - - - - - -
24/02:00pm 15.2 W 11 18 1015.4 - 0.0 - - - - - - -
24/01:30pm 14.6 W 8 16 1015.3 - 0.0 - - - - - - -
24/01:00pm 14.7 W 8 14 1015.1 - 0.0 - - - - - - -
24/12:30pm 14.7 W 7 14 1015.0 - 0.0 - - - - - - -
24/12:00pm 15.3 W 7 13 1015.3 - 0.0 - - - - - - -
24/11:30am 15.1 W 7 16 1015.3 - 0.0 - - - - - - -
24/11:00am 15.0 WNW 7 13 1015.2 - 0.0 - - - - - - -
24/10:30am 14.6 W 9 16 1015.0 - 0.0 - - - - - - -
24/10:00am 13.9 W 7 13 1014.8 - 0.0 - - - - - - -
24/09:30am 13.9 WNW 7 13 1014.5 - 0.0 - - - - - - -
24/09:00am 13.7 WNW 7 13 1014.1 - 0.0 - - - - - - -
24/08:30am 13.4 WNW 7 14 1013.7 - 0.0 - - - - - - -
24/08:00am 12.9 W 7 12 1013.7 - 0.0 - - - - - - -
24/07:30am 12.7 WNW 6 10 1013.2 - 0.0 - - - - - - -
24/07:00am 12.9 W 8 14 1012.9 - 0.0 - - - - - - -
24/06:30am 12.9 W 7 11 1012.6 - 0.0 - - - - - - -
24/06:00am 13.2 W 7 11 1012.3 - 0.0 - - - - - - -
24/05:30am 13.5 WNW 6 13 1012.0 - 0.0 - - - - - - -
24/05:00am 13.7 WNW 5 10 1011.7 - 0.0 - - - - - - -
24/04:30am 13.8 WNW 6 12 1011.4 - 0.0 - - - - - - -
24/04:00am 13.9 WNW 5 11 1011.5 - 0.0 - - - - - - -
24/03:30am 14.2 WNW 5 10 1011.7 - 0.0 - - - - - - -
24/03:00am 13.7 WNW 1 3 1011.6 - 0.0 - - - - - - -
24/02:30am 13.8 WNW 2 5 1011.4 - 0.0 - - - - - - -
24/02:00am 13.4 NW 3 7 1011.4 - 0.0 - - - - - - -
24/01:30am 13.5 NNW 8 11 1011.4 - 0.0 - - - - - - -
24/01:00am 13.6 NNW 5 8 1011.9 - 0.0 - - - - - - -
24/12:30am 14.4 NNW 5 8 1012.0 - 0.0 - - - - - - -
24/12:00am 14.7 NNW 7 11 1012.3 - 0.0 - - - - - - -
 
Date/Time
EST
Temp
°C
Wind Pressure Rain since
9am
mm
Weather Cloud Vis
km
Sea
Height
m
Swell
Dir  Spd
kts
Gust
kts
hPa Trend Height
m
Period
s
Dir
23/11:30pm 14.6 NNW 7 11 1012.5 - 0.0 - - - - - - -
23/11:00pm 14.9 NNW 9 12 1012.8 - 0.0 - - - - - - -
23/10:30pm 15.1 NNW 8 11 1013.2 - 0.0 - - - - - - -
23/10:00pm 14.9 NW 4 8 1013.5 - 0.0 - - - - - - -
23/09:30pm 15.1 NNW 7 10 1013.6 - 0.0 - - - - - - -
23/09:00pm 14.7 NNW 8 11 1013.5 - 0.0 - - - - - - -
23/08:30pm 14.9 NNW 11 13 1013.5 - 0.0 - - - - - - -
23/08:00pm 15.0 NNW 11 14 1013.6 - 0.0 - - - - - - -
23/07:30pm 15.3 NNW 9 13 1013.5 - 0.0 - - - - - - -
23/07:00pm 14.7 N 7 11 1013.6 - 0.0 - - - - - - -
23/06:30pm 14.3 NNE 2 4 1013.6 - 0.0 - - - - - - -
23/06:00pm 14.7 CALM 0 0 1013.7 - 0.0 - - - - - - -
23/05:30pm 15.5 CALM 0 2 1013.7 - 0.0 - - - - - - -
23/05:00pm 15.2 NNW 1 2 1013.5 - 0.0 - - - - - - -
23/04:30pm 16.3 NNW 2 3 1013.3 - 0.0 - - - - - - -
23/04:00pm 16.8 NNW 4 7 1013.5 - 0.0 - - - - - - -
23/03:30pm 17.6 NNW 4 6 1013.4 - 0.0 - - - - - - -
23/03:00pm 17.7 NNW 5 8 1013.5 - 0.0 - - - - - - -
23/02:30pm 16.5 NNW 10 13 1013.6 - 0.0 - - - - - - -
23/02:00pm 17.3 NNW 7 11 1014.0 - 0.0 - - - - - - -
23/01:30pm 16.9 NNW 12 14 1014.1 - 0.0 - - - - - - -
23/01:00pm 16.6 N 9 11 1014.4 - 0.0 - - - - - - -
23/12:30pm 16.5 N 11 15 1014.6 - 0.0 - - - - - - -
23/12:00pm 16.7 N 15 20 1015.3 - 0.0 - - - - - - -
23/11:30am 16.5 N 10 14 1015.7 - 0.0 - - - - - - -
23/11:00am 16.1 NNW 7 9 1016.3 - 0.0 - - - - - - -
23/10:30am 16.1 N 12 15 1016.3 - 0.0 - - - - - - -
23/10:00am 15.6 NNW 13 15 1016.6 - 0.0 - - - - - - -
23/09:30am 16.0 NNW 13 16 1016.8 - 0.0 - - - - - - -
23/09:00am 15.0 NNW 9 13 1017.2 - 0.0 - - - - - - -
23/08:30am 15.1 NNW 9 12 1017.0 - 0.0 - - - - - - -
23/08:00am 15.0 N 5 9 1016.9 - 0.0 - - - - - - -
23/07:30am 14.0 N 3 4 1017.2 - 0.0 - - - - - - -
23/07:00am 12.9 CALM 0 1 1017.2 - 0.0 - - - - - - -
23/06:30am 13.7 NW 2 5 1017.2 - 0.0 - - - - - - -
23/06:00am 12.9 N 2 3 1017.0 - 0.0 - - - - - - -
23/05:30am 13.1 NE 3 4 1016.7 - 0.0 - - - - - - -
23/05:00am 13.3 ENE 5 7 1016.6 - 0.0 - - - - - - -
23/04:30am 14.7 NNE 5 8 1016.9 - 0.0 - - - - - - -
23/04:00am 14.7 NNW 6 7 1016.8 - 0.0 - - - - - - -
23/03:30am 14.8 N 8 10 1017.0 - 0.0 - - - - - - -
23/03:00am 15.5 NNW 9 12 1017.0 - 0.0 - - - - - - -
23/02:30am 15.4 NNW 9 12 1017.2 - 0.0 - - - - - - -
23/02:00am 14.6 NNW 5 7 1017.4 - 0.0 - - - - - - -
23/01:30am 14.2 NNW 3 5 1017.4 - 0.0 - - - - - - -
23/01:00am 13.1 CALM 0 0 1017.2 - 0.0 - - - - - - -
23/12:30am 13.7 N 2 4 1017.5 - 0.0 - - - - - - -
23/12:00am 13.7 NNW 1 2 1017.8 - 0.0 - - - - - - -
 
Date/Time
EST
Temp
°C
Wind Pressure Rain since
9am
mm
Weather Cloud Vis
km
Sea
Height
m
Swell
Dir  Spd
kts
Gust
kts
hPa Trend Height
m
Period
s
Dir
22/11:30pm 13.5 WNW 1 3 1017.9 - 0.0 - - - - - - -
22/11:00pm 14.0 NE 4 6 1017.6 - 0.0 - - - - - - -
22/10:30pm 14.7 NE 5 6 1017.8 - 0.0 - - - - - - -
22/10:00pm 14.7 N 2 3 1018.3 - 0.0 - - - - - - -
22/09:30pm 14.9 N 3 4 1018.3 - 0.0 - - - - - - -
22/09:00pm 15.1 N 5 7 1017.7 - 0.0 - - - - - - -
22/08:30pm 15.4 NNE 6 10 1017.7 - 0.0 - - - - - - -
22/08:00pm 16.4 N 9 14 1017.8 - 0.0 - - - - - - -
22/07:30pm 16.3 NNW 10 13 1018.2 - 0.0 - - - - - - -
22/07:00pm 16.0 N 8 9 1018.3 - 0.0 - - - - - - -
22/06:30pm 15.9 N 5 7 1017.9 - 0.0 - - - - - - -
22/06:00pm 15.6 NNE 5 6 1017.8 - 0.0 - - - - - - -
22/05:30pm 16.3 N 6 9 1017.9 - 0.0 - - - - - - -
22/05:00pm 17.0 N 7 10 1017.6 - 0.0 - - - - - - -
22/04:30pm 17.3 NNE 8 10 1017.5 - 0.0 - - - - - - -
22/04:00pm 18.0 NNE 7 10 1017.7 - 0.0 - - - - - - -
22/03:30pm 18.5 NNE 7 11 1017.9 - 0.0 - - - - - - -
22/03:00pm 18.8 N 7 11 1017.8 - 0.0 - - - - - - -
22/02:30pm 18.8 NNE 10 16 1017.8 - 0.0 - - - - - - -
22/02:00pm 19.0 N 9 14 1018.2 - 0.0 - - - - - - -
22/01:30pm 18.6 N 9 15 1018.6 - 0.0 - - - - - - -
22/01:00pm 18.4 N 13 16 1019.2 - 0.0 - - - - - - -
22/12:30pm 18.2 NNW 15 18 1019.7 - 0.0 - - - - - - -
22/12:00pm 18.1 N 7 9 1020.4 - 0.0 - - - - - - -
22/11:30am 19.1 NNE 3 5 1020.8 - 0.0 - - - - - - -
22/11:00am 18.7 NE 5 6 1021.3 - 0.0 - - - - - - -
22/10:30am 17.3 NNE 4 6 1021.6 - 0.0 - - - - - - -
22/10:00am 15.7 NNE 3 5 1021.9 - 0.0 - - - - - - -
22/09:30am 15.9 NE 4 5 1022.1 - 0.0 - - - - - - -
22/09:00am 15.0 NE 5 6 1022.1 - 0.0 - - - - - - -
22/08:30am 13.7 NE 5 6 1022.2 - 0.0 - - - - - - -
22/08:00am 12.8 NNE 5 6 1022.0 - 0.0 - - - - - - -
22/07:30am 12.8 NNE 3 6 1021.9 - 0.0 - - - - - - -
22/07:00am 12.7 N 4 7 1021.7 - 0.0 - - - - - - -
22/06:30am 12.9 N 5 7 1021.6 - 0.0 - - - - - - -
22/06:00am 12.4 N 3 5 1021.3 - 0.0 - - - - - - -
22/05:30am 12.1 NE 2 3 1021.0 - 0.0 - - - - - - -
22/05:00am 12.2 NE 3 5 1020.9 - 0.0 - - - - - - -
22/04:30am 12.8 NE 3 5 1020.9 - 0.0 - - - - - - -
22/04:00am 13.4 N 6 8 1020.8 - 0.0 - - - - - - -
22/03:30am 13.1 NNW 6 8 1020.8 - 0.0 - - - - - - -
22/03:00am 12.6 N 3 4 1021.1 - 0.0 - - - - - - -
22/02:30am 12.7 N 4 5 1021.1 - 0.0 - - - - - - -
22/02:00am 12.7 N 2 3 1021.1 - 0.0 - - - - - - -
22/01:30am 12.5 NE 2 4 1021.1 - 0.0 - - - - - - -
22/01:00am 12.9 NNE 2 4 1021.2 - 0.0 - - - - - - -
22/12:30am 13.3 N 5 6 1021.2 - 0.0 - - - - - - -
22/12:00am 13.2 N 6 7 1021.2 - 0.0 - - - - - - -
 
Date/Time
EST
Temp
°C
Wind Pressure Rain since
9am
mm
Weather Cloud Vis
km
Sea
Height
m
Swell
Dir  Spd
kts
Gust
kts
hPa Trend Height
m
Period
s
Dir
21/11:30pm 12.9 NNE 1 3 1021.2 - 0.0 - - - - - - -
21/11:00pm 13.1 N 2 3 1021.1 - 0.0 - - - - - - -
21/10:30pm 12.6 NW 1 2 1021.1 - 0.0 - - - - - - -
21/10:00pm 13.7 N 4 5 1021.1 - 0.0 - - - - - - -

Other Formats:

Comma delimited format used in spreadsheet applications
http://www.bom.gov.au/fwo/IDV60701/IDV60701.94892.axf

JavaScript Object Notation format (JSON) in row-major order
http://www.bom.gov.au/fwo/IDV60701/IDV60701.94892.json